createdAt,value
2023-07-31T00:02:01.430Z,99962.22
2023-07-31T00:04:28.783Z,99975.78
2023-07-31T00:06:55.886Z,99992.44
2023-07-31T00:09:23.079Z,99990.66
2023-07-31T00:11:51.752Z,99992.97
2023-07-31T00:14:19.372Z,100004.22
2023-07-31T00:16:46.538Z,100004.00
2023-07-31T00:19:13.732Z,100003.47
2023-07-31T00:21:40.933Z,100009.09
2023-07-31T00:24:08.178Z,100008.34
2023-07-31T00:26:35.449Z,100023.19
2023-07-31T00:29:04.065Z,100027.75
2023-07-31T00:31:31.599Z,100032.59
2023-07-31T00:33:58.989Z,100033.09
2023-07-31T00:36:26.165Z,100036.94
2023-07-31T00:38:53.333Z,100038.47
2023-07-31T00:41:20.519Z,100047.63
2023-07-31T00:43:47.653Z,100050.59
2023-07-31T00:46:16.645Z,100047.97
2023-07-31T00:48:44.102Z,100057.66
2023-07-31T00:51:11.669Z,100071.22
2023-07-31T00:53:39.664Z,100083.22
2023-07-31T00:56:07.910Z,100086.28
2023-07-31T00:58:35.086Z,100089.84
2023-07-31T01:01:02.500Z,100108.78
2023-07-31T01:03:31.076Z,100109.31
2023-07-31T01:06:10.662Z,100120.03
2023-07-31T01:08:44.157Z,100133.59
2023-07-31T01:11:20.603Z,100145.88
2023-07-31T01:13:48.121Z,100145.59
2023-07-31T01:16:15.292Z,100164.22
2023-07-31T01:18:43.823Z,100169.06
2023-07-31T01:21:23.963Z,100180.59
2023-07-31T01:24:20.757Z,100206.19
2023-07-31T01:26:54.904Z,100213.09
2023-07-31T01:29:30.104Z,100219.78
2023-07-31T01:32:01.415Z,100221.84
2023-07-31T01:34:30.555Z,100218.75
2023-07-31T01:36:57.908Z,100216.44
2023-07-31T01:39:25.269Z,100210.88
2023-07-31T01:41:55.898Z,100209.56
2023-07-31T01:44:23.282Z,100217.41
2023-07-31T01:46:50.850Z,100222.91
2023-07-31T01:49:18.187Z,100251.16
2023-07-31T01:51:45.328Z,100271.00
2023-07-31T01:54:12.599Z,100306.56
2023-07-31T01:56:40.028Z,100335.97
2023-07-31T01:59:08.759Z,100373.22
2023-07-31T02:01:36.009Z,100401.75
2023-07-31T02:04:04.856Z,100436.19
2023-07-31T02:06:32.060Z,100475.25
2023-07-31T02:08:59.275Z,100508.41
2023-07-31T02:11:26.453Z,100538.34
2023-07-31T02:13:53.663Z,100587.41
2023-07-31T02:16:22.926Z,100627.44
2023-07-31T02:18:50.450Z,100667.00
2023-07-31T02:21:17.876Z,100698.75
2023-07-31T02:23:45.136Z,100742.16
2023-07-31T02:26:14.001Z,100776.53
2023-07-31T02:28:41.192Z,100821.59
2023-07-31T02:31:08.360Z,100878.06
2023-07-31T02:33:36.921Z,100932.25
2023-07-31T02:36:04.464Z,100993.75
2023-07-31T02:38:31.581Z,101034.06
2023-07-31T02:40:58.715Z,101058.69
2023-07-31T02:43:27.294Z,101088.69
2023-07-31T02:45:54.578Z,101121.16
2023-07-31T02:48:21.816Z,101153.78
2023-07-31T02:50:50.484Z,101199.06
2023-07-31T02:53:17.725Z,101253.06
2023-07-31T02:55:44.888Z,101305.25
2023-07-31T02:58:12.050Z,101357.41
2023-07-31T03:00:43.191Z,101383.63
2023-07-31T03:03:10.528Z,101425.78
2023-07-31T03:05:38.348Z,101459.81
2023-07-31T03:08:06.857Z,101480.75
2023-07-31T03:10:34.029Z,101497.28
2023-07-31T03:13:01.134Z,101514.94
2023-07-31T03:15:28.345Z,101516.63
2023-07-31T03:17:55.646Z,101540.50
2023-07-31T03:20:22.804Z,101567.81
2023-07-31T03:22:50.046Z,101571.09
2023-07-31T03:25:19.043Z,101595.91
2023-07-31T03:27:46.156Z,101621.66
2023-07-31T03:30:13.290Z,101643.34
2023-07-31T03:32:40.577Z,101664.03
2023-07-31T03:35:08.113Z,101680.91
2023-07-31T03:37:41.911Z,101691.34
2023-07-31T03:40:10.493Z,101708.34
2023-07-31T03:42:39.113Z,101709.47
2023-07-31T03:45:08.140Z,101717.22
2023-07-31T03:47:38.558Z,101726.56
2023-07-31T03:50:07.013Z,101748.94
2023-07-31T03:52:34.416Z,101771.06
2023-07-31T03:55:01.674Z,101786.03
2023-07-31T03:57:28.842Z,101811.34
2023-07-31T03:59:59.805Z,101837.38
2023-07-31T04:02:26.952Z,101846.16
2023-07-31T04:04:54.052Z,101833.34
2023-07-31T04:07:21.310Z,101821.19
2023-07-31T04:09:48.457Z,101807.25
2023-07-31T04:12:15.617Z,101806.34
2023-07-31T04:14:42.721Z,101811.22
2023-07-31T04:17:12.637Z,101812.22
2023-07-31T04:19:39.854Z,101828.84
2023-07-31T04:22:08.508Z,101848.84
2023-07-31T04:24:35.633Z,101840.66
2023-07-31T04:27:03.063Z,101840.53
2023-07-31T04:29:30.219Z,101869.09
2023-07-31T04:31:57.312Z,101893.59
2023-07-31T04:34:25.714Z,101926.44
2023-07-31T04:36:52.852Z,101957.25
2023-07-31T04:39:19.941Z,101978.47
2023-07-31T04:41:46.982Z,101979.72
2023-07-31T04:44:14.065Z,101982.31
2023-07-31T04:46:41.583Z,101971.97
2023-07-31T04:49:09.157Z,101967.38
2023-07-31T04:51:37.860Z,101946.44
2023-07-31T04:54:04.926Z,101904.50
2023-07-31T04:56:32.013Z,101888.31
2023-07-31T04:58:59.119Z,101844.25
2023-07-31T05:01:26.284Z,101815.00
2023-07-31T05:03:53.433Z,101789.72
2023-07-31T05:06:20.768Z,101760.56
2023-07-31T05:08:49.158Z,101731.69
2023-07-31T05:11:16.370Z,101716.47
2023-07-31T05:13:43.452Z,101691.31
2023-07-31T05:16:10.588Z,101662.84
2023-07-31T05:18:37.734Z,101640.56
2023-07-31T05:21:04.845Z,101619.50
2023-07-31T05:23:31.887Z,101583.22
2023-07-31T05:26:05.222Z,101565.13
2023-07-31T05:28:35.418Z,101541.66
2023-07-31T05:31:02.982Z,101521.66
2023-07-31T05:33:30.370Z,101512.13
2023-07-31T05:35:57.583Z,101529.06
2023-07-31T05:38:24.729Z,101558.66
2023-07-31T05:40:51.826Z,101550.28
2023-07-31T05:43:20.220Z,101537.66
2023-07-31T05:45:47.425Z,101529.69
2023-07-31T05:48:14.711Z,101539.28
2023-07-31T05:50:41.965Z,101533.66
2023-07-31T05:53:09.149Z,101516.78
2023-07-31T05:55:36.241Z,101531.94
2023-07-31T05:58:03.323Z,101535.56
2023-07-31T06:00:31.799Z,101532.41
2023-07-31T06:02:58.977Z,101522.75
2023-07-31T06:05:26.115Z,101488.72
2023-07-31T06:07:53.219Z,101436.53
2023-07-31T06:10:20.266Z,101418.53
2023-07-31T06:12:47.399Z,101427.59
2023-07-31T06:15:16.772Z,101437.41
2023-07-31T06:17:45.321Z,101457.75
2023-07-31T06:20:12.645Z,101491.53
2023-07-31T06:22:39.838Z,101490.03
2023-07-31T06:25:07.419Z,101449.06
2023-07-31T06:27:34.503Z,101411.25
2023-07-31T06:30:01.666Z,101379.25
2023-07-31T06:32:29.032Z,101326.88
2023-07-31T06:34:57.816Z,101275.91
2023-07-31T06:37:24.945Z,101238.72
2023-07-31T06:39:52.113Z,101212.63
2023-07-31T06:42:19.293Z,101195.22
2023-07-31T06:44:46.365Z,101140.25
2023-07-31T06:47:13.431Z,101113.38
2023-07-31T06:49:40.754Z,101067.44
2023-07-31T06:52:09.265Z,101081.22
2023-07-31T06:54:36.493Z,101119.81
2023-07-31T06:57:04.149Z,101151.06
2023-07-31T06:59:31.262Z,101162.47
2023-07-31T07:01:58.654Z,101169.97
2023-07-31T07:04:25.813Z,101179.63
2023-07-31T07:06:52.930Z,101177.00
2023-07-31T07:09:21.399Z,101168.03
2023-07-31T07:11:48.532Z,101154.59
2023-07-31T07:14:15.910Z,101154.13
2023-07-31T07:16:43.390Z,101142.72
2023-07-31T07:19:10.804Z,101158.31
2023-07-31T07:21:40.851Z,101179.59
2023-07-31T07:24:08.140Z,101206.00
2023-07-31T07:26:36.582Z,101215.88
2023-07-31T07:29:03.706Z,101239.47
2023-07-31T07:31:30.964Z,101236.47
2023-07-31T07:33:58.142Z,101215.50
2023-07-31T07:36:25.576Z,101196.09
2023-07-31T07:38:52.688Z,101171.41
2023-07-31T07:41:23.149Z,101144.78
2023-07-31T07:43:51.611Z,101107.09
2023-07-31T07:46:18.755Z,101082.34
2023-07-31T07:48:45.902Z,101044.66
2023-07-31T07:51:13.028Z,101005.84
2023-07-31T07:53:40.116Z,100993.00
2023-07-31T07:56:07.234Z,100995.81
2023-07-31T07:58:34.389Z,101007.38
2023-07-31T08:01:03.089Z,101018.47
2023-07-31T08:03:31.698Z,100983.06
2023-07-31T08:05:59.409Z,100965.38
2023-07-31T08:08:26.964Z,100926.25
2023-07-31T08:10:54.144Z,100892.72
2023-07-31T08:13:21.674Z,100855.47
2023-07-31T08:15:48.778Z,100820.97
2023-07-31T08:18:17.297Z,100782.88
2023-07-31T08:20:44.540Z,100733.94
2023-07-31T08:23:12.012Z,100712.16
2023-07-31T08:25:39.902Z,100685.38
2023-07-31T08:28:07.795Z,100659.72
2023-07-31T08:30:35.176Z,100633.25
2023-07-31T08:33:02.385Z,100601.56
2023-07-31T08:35:30.861Z,100574.09
2023-07-31T08:37:57.988Z,100553.53
2023-07-31T08:40:25.165Z,100523.78
2023-07-31T08:42:55.343Z,100495.47
2023-07-31T08:45:22.454Z,100481.25
2023-07-31T08:47:51.819Z,100451.09
2023-07-31T08:50:20.447Z,100430.75
2023-07-31T08:52:50.396Z,100405.44
2023-07-31T08:55:17.954Z,100375.34
2023-07-31T08:57:45.189Z,100357.28
2023-07-31T09:00:13.122Z,100321.97
2023-07-31T09:02:49.335Z,100297.56
2023-07-31T09:05:17.808Z,100249.16
2023-07-31T09:07:48.017Z,100232.81
2023-07-31T09:10:16.506Z,100212.84
2023-07-31T09:12:43.844Z,100166.16
2023-07-31T09:15:24.077Z,100138.97
2023-07-31T09:18:03.509Z,100095.91
2023-07-31T09:20:30.710Z,100068.72
2023-07-31T09:23:03.247Z,100044.91
2023-07-31T09:25:31.687Z,100010.03
2023-07-31T09:28:01.689Z,99990.03
2023-07-31T09:30:28.940Z,99972.09
2023-07-31T09:33:03.720Z,99968.25
2023-07-31T09:35:32.322Z,99971.06
2023-07-31T09:38:01.305Z,99974.38
2023-07-31T09:40:31.872Z,100003.88
2023-07-31T09:43:01.121Z,100037.16
2023-07-31T09:45:39.882Z,100058.19
2023-07-31T09:48:09.140Z,100072.28
2023-07-31T09:50:38.598Z,100091.00
2023-07-31T09:53:06.134Z,100116.16
2023-07-31T09:55:34.944Z,100109.50
2023-07-31T09:58:05.721Z,100116.44
2023-07-31T10:00:33.265Z,100099.56
2023-07-31T10:03:01.857Z,100079.31
2023-07-31T10:05:32.230Z,100041.84
2023-07-31T10:07:59.315Z,100050.78
2023-07-31T10:10:29.766Z,100042.34
2023-07-31T10:12:59.428Z,100055.94
2023-07-31T10:15:28.182Z,100080.28
2023-07-31T10:17:56.599Z,100089.25
2023-07-31T10:20:25.595Z,100091.56
2023-07-31T10:22:55.539Z,100091.06
2023-07-31T10:25:23.441Z,100108.25
2023-07-31T10:27:53.306Z,100114.38
2023-07-31T10:30:25.611Z,100119.31
2023-07-31T10:32:54.487Z,100103.38
2023-07-31T10:35:22.415Z,100079.75
2023-07-31T10:37:49.697Z,100052.22
2023-07-31T10:40:18.254Z,100025.91
2023-07-31T10:42:50.880Z,100014.81
2023-07-31T10:45:35.079Z,100007.19
2023-07-31T10:48:04.562Z,100011.28
2023-07-31T10:50:39.278Z,100034.16
2023-07-31T10:53:06.627Z,100069.53
2023-07-31T10:55:39.485Z,100082.38
2023-07-31T10:58:08.318Z,100097.25
2023-07-31T11:00:39.234Z,100114.44
2023-07-31T11:03:08.145Z,100119.31
2023-07-31T11:05:52.232Z,100116.72
2023-07-31T11:08:21.301Z,100107.22
2023-07-31T11:10:50.629Z,100086.97
2023-07-31T11:13:18.530Z,100072.31
2023-07-31T11:15:46.933Z,100054.31
2023-07-31T11:18:14.159Z,100045.88
2023-07-31T11:20:41.314Z,100033.00
2023-07-31T11:23:09.788Z,100004.22
2023-07-31T11:25:37.793Z,99990.06
2023-07-31T11:28:06.827Z,99967.75
2023-07-31T11:30:34.041Z,99966.63
2023-07-31T11:33:04.962Z,99934.28
2023-07-31T11:35:33.860Z,99922.97
2023-07-31T11:38:01.790Z,99912.44
2023-07-31T11:40:32.885Z,99901.44
2023-07-31T11:43:05.437Z,99895.16
2023-07-31T11:45:32.900Z,99941.59
2023-07-31T11:48:00.361Z,99956.28
2023-07-31T11:50:29.216Z,99991.47
2023-07-31T11:53:00.386Z,100043.31
2023-07-31T11:55:28.286Z,100054.59
2023-07-31T11:57:58.456Z,100099.97
2023-07-31T12:00:28.709Z,100100.03
2023-07-31T12:02:55.972Z,100124.63
2023-07-31T12:05:24.103Z,100156.78
2023-07-31T12:07:54.090Z,100176.53
2023-07-31T12:10:29.962Z,100196.56
2023-07-31T12:13:02.386Z,100221.97
2023-07-31T12:15:40.555Z,100227.63
2023-07-31T12:18:09.892Z,100258.44
2023-07-31T12:20:42.175Z,100267.44
2023-07-31T12:23:15.691Z,100276.94
2023-07-31T12:25:42.914Z,100275.41
2023-07-31T12:28:10.463Z,100274.91
2023-07-31T12:30:38.598Z,100288.75
2023-07-31T12:33:06.719Z,100298.00
2023-07-31T12:35:42.686Z,100286.19
2023-07-31T12:38:09.834Z,100279.00
2023-07-31T12:40:40.193Z,100287.72
2023-07-31T12:43:07.993Z,100294.91
2023-07-31T12:45:35.706Z,100302.88
2023-07-31T12:48:03.290Z,100293.09
2023-07-31T12:50:30.560Z,100294.91
2023-07-31T12:52:58.461Z,100305.69
2023-07-31T12:55:25.558Z,100304.16
2023-07-31T12:57:55.505Z,100284.13
2023-07-31T13:00:26.282Z,100271.28
2023-07-31T13:02:53.728Z,100270.75
2023-07-31T13:05:21.206Z,100262.81
2023-07-31T13:07:51.896Z,100249.47
2023-07-31T13:10:20.808Z,100236.63
2023-07-31T13:12:50.506Z,100208.34
2023-07-31T13:15:19.365Z,100180.84
2023-07-31T13:17:46.973Z,100158.47
2023-07-31T13:20:14.205Z,100106.06
2023-07-31T13:22:42.523Z,100093.00
2023-07-31T13:25:10.742Z,100067.22
2023-07-31T13:27:37.878Z,100058.19
2023-07-31T13:30:06.207Z,100030.66
2023-07-31T13:32:36.920Z,100011.47
2023-07-31T13:35:04.715Z,100005.56
2023-07-31T13:37:32.879Z,100025.31
2023-07-31T13:40:01.673Z,100007.66
2023-07-31T13:42:29.062Z,100012.63
2023-07-31T13:44:57.095Z,100026.72
2023-07-31T13:47:24.367Z,100032.66
2023-07-31T13:49:52.925Z,100038.09
2023-07-31T13:52:20.013Z,100063.22
2023-07-31T13:54:47.228Z,100066.84
2023-07-31T13:57:14.397Z,100080.97
2023-07-31T13:59:41.552Z,100105.66
2023-07-31T14:02:10.080Z,100125.41
2023-07-31T14:04:37.189Z,100149.84
2023-07-31T14:07:05.834Z,100171.66
2023-07-31T14:09:33.059Z,100197.34
2023-07-31T14:12:00.150Z,100191.38
2023-07-31T14:14:27.252Z,100207.06
2023-07-31T14:16:54.512Z,100192.19
2023-07-31T14:19:22.064Z,100188.81
2023-07-31T14:22:01.173Z,100180.88
2023-07-31T14:24:39.332Z,100197.81
2023-07-31T14:27:06.671Z,100189.59
2023-07-31T14:29:33.825Z,100185.50
2023-07-31T14:32:01.342Z,100186.53
2023-07-31T14:34:28.866Z,100183.72
2023-07-31T14:36:55.948Z,100156.72
2023-07-31T14:39:23.134Z,100142.31
2023-07-31T14:41:51.620Z,100108.69
2023-07-31T14:44:24.020Z,100106.81
2023-07-31T14:46:51.169Z,100095.78
2023-07-31T14:49:18.378Z,100066.28
2023-07-31T14:51:45.539Z,100066.25
2023-07-31T14:54:12.663Z,100051.88
2023-07-31T14:56:39.964Z,100052.16
2023-07-31T14:59:08.549Z,100044.47
2023-07-31T15:01:35.804Z,100028.78
2023-07-31T15:04:02.934Z,100038.59
2023-07-31T15:06:31.539Z,100075.06
2023-07-31T15:08:58.933Z,100082.25
2023-07-31T15:11:26.345Z,100097.44
2023-07-31T15:13:53.691Z,100117.72
2023-07-31T15:16:22.269Z,100143.94
2023-07-31T15:18:49.406Z,100173.22
2023-07-31T15:21:16.682Z,100187.56
2023-07-31T15:23:43.789Z,100220.69
2023-07-31T15:26:10.868Z,100240.75
2023-07-31T15:28:38.051Z,100266.13
2023-07-31T15:31:05.750Z,100292.56
2023-07-31T15:33:34.169Z,100325.66
2023-07-31T15:36:01.271Z,100354.41
2023-07-31T15:38:28.841Z,100387.31
2023-07-31T15:40:56.052Z,100421.19
2023-07-31T15:43:23.314Z,100460.75
2023-07-31T15:45:50.517Z,100484.34
2023-07-31T15:48:17.635Z,100520.84
2023-07-31T15:50:47.899Z,100536.47
2023-07-31T15:53:15.022Z,100548.84
2023-07-31T15:55:42.115Z,100568.41
2023-07-31T15:58:09.230Z,100580.47
2023-07-31T16:00:36.417Z,100588.22
2023-07-31T16:03:03.776Z,100580.81
2023-07-31T16:05:30.927Z,100561.53
2023-07-31T16:07:59.351Z,100542.00
2023-07-31T16:10:27.053Z,100502.19
2023-07-31T16:12:54.183Z,100481.13
2023-07-31T16:15:21.296Z,100454.69
2023-07-31T16:17:48.434Z,100429.25
2023-07-31T16:20:15.869Z,100390.47
2023-07-31T16:22:42.948Z,100363.50
2023-07-31T16:25:11.788Z,100349.09
2023-07-31T16:27:38.944Z,100294.91
2023-07-31T16:30:07.346Z,100271.03
2023-07-31T16:32:34.775Z,100248.72
2023-07-31T16:35:01.994Z,100217.88
2023-07-31T16:37:29.108Z,100187.31
2023-07-31T16:39:56.243Z,100159.53
2023-07-31T16:42:24.685Z,100144.09
2023-07-31T16:44:52.109Z,100119.22
2023-07-31T16:47:19.153Z,100090.19
2023-07-31T16:49:46.297Z,100067.84
2023-07-31T16:52:13.411Z,100052.94
2023-07-31T16:54:40.544Z,100037.00
2023-07-31T16:57:07.947Z,100013.38
2023-07-31T16:59:36.464Z,99994.09
2023-07-31T17:02:03.909Z,99997.22
2023-07-31T17:04:31.595Z,99984.31
2023-07-31T17:06:58.886Z,99979.47
2023-07-31T17:09:26.054Z,99966.38
2023-07-31T17:11:53.360Z,99964.56
2023-07-31T17:14:22.193Z,99958.44
2023-07-31T17:16:50.580Z,99948.94
2023-07-31T17:19:17.838Z,99949.44
2023-07-31T17:21:45.019Z,99946.59
2023-07-31T17:24:15.002Z,99930.91
2023-07-31T17:26:42.146Z,99916.03
2023-07-31T17:29:15.167Z,99912.69
2023-07-31T17:31:42.577Z,99901.91
2023-07-31T17:34:11.396Z,99920.41
2023-07-31T17:36:38.851Z,99908.66
2023-07-31T17:39:06.270Z,99910.19
2023-07-31T17:41:33.374Z,99909.66
2023-07-31T17:44:00.513Z,99909.53
2023-07-31T17:46:27.755Z,99939.09
2023-07-31T17:48:55.128Z,99975.34
2023-07-31T17:51:23.915Z,100021.31
2023-07-31T17:53:50.977Z,100061.34
2023-07-31T17:56:18.033Z,100112.66
2023-07-31T17:58:45.154Z,100152.16
2023-07-31T18:01:12.321Z,100182.69
2023-07-31T18:03:39.698Z,100199.09
2023-07-31T18:06:06.925Z,100225.75
2023-07-31T18:08:35.329Z,100267.28
2023-07-31T18:11:03.948Z,100306.59
2023-07-31T18:13:31.024Z,100336.59
2023-07-31T18:15:58.189Z,100386.81
2023-07-31T18:18:25.320Z,100446.84
2023-07-31T18:20:52.399Z,100498.44
2023-07-31T18:23:19.528Z,100552.28
2023-07-31T18:25:49.337Z,100602.66
2023-07-31T18:28:16.511Z,100641.16
2023-07-31T18:30:43.715Z,100695.47
2023-07-31T18:33:10.891Z,100739.28
2023-07-31T18:35:38.882Z,100775.63
2023-07-31T18:38:05.959Z,100827.13
2023-07-31T18:40:33.689Z,100858.50
2023-07-31T18:43:02.181Z,100926.22
2023-07-31T18:45:29.358Z,100976.41
2023-07-31T18:47:56.568Z,101029.91
2023-07-31T18:50:23.666Z,101082.63
2023-07-31T18:52:50.944Z,101133.16
2023-07-31T18:55:18.050Z,101188.50
2023-07-31T18:57:45.220Z,101285.41
2023-07-31T19:00:14.085Z,101394.44
2023-07-31T19:02:41.209Z,101523.16
2023-07-31T19:05:09.108Z,101650.38
2023-07-31T19:07:36.154Z,101790.53
2023-07-31T19:10:15.060Z,101926.72
2023-07-31T19:12:43.364Z,102101.16
2023-07-31T19:15:11.041Z,102203.19
2023-07-31T19:17:40.020Z,102254.75
2023-07-31T19:20:08.262Z,102275.16
2023-07-31T19:22:35.331Z,102326.03
2023-07-31T19:25:02.389Z,102338.66
2023-07-31T19:27:29.547Z,102424.16
2023-07-31T19:29:56.661Z,102488.00
2023-07-31T19:32:23.957Z,102523.31
2023-07-31T19:34:52.460Z,102538.22
2023-07-31T19:37:19.564Z,102528.38
2023-07-31T19:39:46.638Z,102571.41
2023-07-31T19:42:13.828Z,102590.59
2023-07-31T19:44:40.947Z,102596.22
2023-07-31T19:47:08.255Z,102588.44
2023-07-31T19:49:35.522Z,102621.63
2023-07-31T19:52:04.845Z,102647.47
2023-07-31T19:54:32.233Z,102652.31
2023-07-31T19:57:03.106Z,102674.88
2023-07-31T19:59:31.972Z,102749.78
2023-07-31T20:01:59.117Z,102803.91
2023-07-31T20:04:26.424Z,102819.06
2023-07-31T20:06:53.584Z,102876.94
2023-07-31T20:09:22.139Z,102895.50
2023-07-31T20:11:49.439Z,102944.38
2023-07-31T20:14:17.065Z,102903.44
2023-07-31T20:16:44.244Z,102901.06
2023-07-31T20:19:12.004Z,102865.53
2023-07-31T20:21:39.347Z,102842.34
2023-07-31T20:24:06.815Z,102815.84
2023-07-31T20:26:35.357Z,102815.94
2023-07-31T20:29:02.618Z,102826.94
2023-07-31T20:31:29.941Z,102785.28
2023-07-31T20:33:57.161Z,102710.59
2023-07-31T20:36:27.074Z,102610.13
2023-07-31T20:38:54.280Z,102466.22
2023-07-31T20:41:22.673Z,102290.28
2023-07-31T20:43:51.558Z,102027.25
2023-07-31T20:46:20.706Z,101603.50
2023-07-31T20:48:48.163Z,101360.75
2023-07-31T20:51:15.240Z,101177.63
2023-07-31T20:53:42.416Z,101064.91
2023-07-31T20:56:09.558Z,100989.06
2023-07-31T20:58:36.806Z,100961.25
2023-07-31T21:01:05.452Z,100961.47
2023-07-31T21:03:32.890Z,100983.75
2023-07-31T21:06:00.126Z,100985.19
2023-07-31T21:08:27.427Z,100989.56
2023-07-31T21:10:55.140Z,100980.22
2023-07-31T21:13:22.418Z,100940.47
2023-07-31T21:15:49.642Z,100903.84
2023-07-31T21:18:18.154Z,100886.38
2023-07-31T21:20:48.285Z,100874.19
2023-07-31T21:23:15.762Z,100816.75
2023-07-31T21:25:43.022Z,100753.81
2023-07-31T21:28:10.290Z,100677.84
2023-07-31T21:30:37.969Z,100609.34
2023-07-31T21:33:05.644Z,100564.25
2023-07-31T21:35:34.240Z,100529.59
2023-07-31T21:38:01.320Z,100504.16
2023-07-31T21:40:28.422Z,100489.31
2023-07-31T21:42:55.863Z,100482.06
2023-07-31T21:45:23.183Z,100475.38
2023-07-31T21:47:50.441Z,100465.13
2023-07-31T21:50:18.076Z,100456.09
2023-07-31T21:52:46.535Z,100446.94
2023-07-31T21:55:13.651Z,100431.47
2023-07-31T21:57:40.809Z,100442.75
2023-07-31T22:00:08.881Z,100458.63
2023-07-31T22:02:37.419Z,100476.81
2023-07-31T22:05:04.989Z,100479.41
2023-07-31T22:07:32.420Z,100479.06
2023-07-31T22:10:01.103Z,100491.63
2023-07-31T22:12:28.293Z,100518.47
2023-07-31T22:14:55.425Z,100546.34
2023-07-31T22:17:23.206Z,100574.19
2023-07-31T22:19:50.371Z,100585.66
2023-07-31T22:22:17.506Z,100626.44
2023-07-31T22:24:44.681Z,100612.59
2023-07-31T22:27:13.179Z,100578.22
2023-07-31T22:29:40.682Z,100556.47
2023-07-31T22:32:08.054Z,100539.59
2023-07-31T22:34:36.489Z,100534.66
2023-07-31T22:37:03.909Z,100553.53
2023-07-31T22:39:31.109Z,100574.84
2023-07-31T22:41:58.225Z,100562.53
2023-07-31T22:44:26.680Z,100575.97
2023-07-31T22:46:53.861Z,100591.38
2023-07-31T22:49:20.991Z,100621.56
2023-07-31T22:51:48.133Z,100622.13
2023-07-31T22:54:15.289Z,100628.47
2023-07-31T22:56:42.940Z,100607.13
2023-07-31T22:59:10.343Z,100601.09
2023-07-31T23:01:38.907Z,100586.75
2023-07-31T23:04:06.290Z,100567.25
2023-07-31T23:06:34.939Z,100552.34
2023-07-31T23:09:02.108Z,100568.94
2023-07-31T23:11:29.278Z,100599.81
2023-07-31T23:13:56.439Z,100609.41
2023-07-31T23:16:23.738Z,100610.97
2023-07-31T23:18:52.201Z,100645.03
2023-07-31T23:21:19.376Z,100667.88
2023-07-31T23:23:46.728Z,100633.22
2023-07-31T23:26:13.855Z,100616.47
2023-07-31T23:28:40.962Z,100612.38
2023-07-31T23:31:08.174Z,100622.66
2023-07-31T23:33:35.353Z,100594.78
2023-07-31T23:36:10.249Z,100578.47
2023-07-31T23:38:37.404Z,100539.31
2023-07-31T23:41:06.940Z,100521.59
2023-07-31T23:43:34.164Z,100508.94
2023-07-31T23:46:01.463Z,100475.03
2023-07-31T23:48:28.596Z,100432.94
2023-07-31T23:50:56.248Z,100416.53
2023-07-31T23:53:25.570Z,100398.78
2023-07-31T23:55:52.961Z,100402.22
2023-07-31T23:58:20.128Z,100397.75
